Terminal Aerodrome Forecast
Issued by NWS Portland, OR

Home | Current Version | Previous Version | Text Only | Print | Product List | Glossary On
Versions: 1 2 3 4 5 6 7 8 9 10 11 12 13 14 15 16 17 18 19 20 21 22 23 24 25 26 27 28 29 30 31 32 33 34 35 36 37 38 39 40 41
000
FTUS46 KPQR 212320
TAFHIO
TAF
KHIO 212320Z 2200/2224 22006KT P6SM VCSH BKN035 OVC060
     FM220300 28004KT P6SM VCSH SCT035 OVC050
     FM221500 00000KT 2SM BR OVC009
     FM221900 00000KT 4SM BR SCT008 BKN020=

USA.gov is the U.S. government's official web portal to all federal, state and local government web resources and services.